createdAt,value
2023-01-13T14:10:40.560Z,101123.16
2023-01-13T14:13:31.913Z,101121.03
2023-01-13T14:16:02.468Z,101130.09
2023-01-13T14:18:33.193Z,101119.59
2023-01-13T14:21:01.037Z,101144.25
2023-01-13T14:23:30.577Z,101140.13
2023-01-13T14:26:15.020Z,101157.06
2023-01-13T14:28:42.466Z,101147.00
2023-01-13T14:31:10.728Z,101141.31
2023-01-13T14:33:41.379Z,101147.38
2023-01-13T14:36:21.668Z,101148.72
2023-01-13T14:39:05.280Z,101152.22
2023-01-13T14:41:36.926Z,101158.03
2023-01-13T14:44:29.398Z,101149.50
2023-01-13T14:46:58.675Z,101160.56
2023-01-13T14:49:36.021Z,101162.00
2023-01-13T14:52:09.934Z,101149.25
2023-01-13T14:54:51.724Z,101158.06
2023-01-13T14:57:27.770Z,101155.53
2023-01-13T15:00:16.412Z,101161.63
2023-01-13T15:02:58.108Z,101164.75
2023-01-13T15:05:27.595Z,101163.06
2023-01-13T15:08:00.324Z,101169.94
2023-01-13T15:10:45.722Z,101160.81
2023-01-13T15:13:23.378Z,101164.44
2023-01-13T15:15:56.120Z,101165.22
2023-01-13T15:18:23.065Z,101156.75
2023-01-13T15:20:52.449Z,101157.56
2023-01-13T15:23:20.284Z,101173.19
2023-01-13T15:25:47.859Z,101164.84
2023-01-13T15:28:21.043Z,101160.50
2023-01-13T15:30:49.446Z,101174.00
2023-01-13T15:33:17.150Z,101172.47
2023-01-13T15:35:47.742Z,101160.66
2023-01-13T15:38:17.401Z,101162.00
2023-01-13T15:40:44.867Z,101173.88
2023-01-13T15:43:35.579Z,101171.16
2023-01-13T15:46:23.083Z,101167.38
2023-01-13T15:48:54.863Z,101160.31
2023-01-13T15:51:21.664Z,101155.56
2023-01-13T15:53:48.321Z,101154.38
2023-01-13T15:56:24.460Z,101158.75
2023-01-13T15:58:51.064Z,101159.56
2023-01-13T16:01:17.887Z,101164.91
2023-01-13T16:03:44.551Z,101170.13
2023-01-13T16:06:24.622Z,101174.69
2023-01-13T16:08:51.412Z,101177.75
2023-01-13T16:11:18.087Z,101187.44
2023-01-13T16:13:44.860Z,101193.34
2023-01-13T16:16:24.482Z,101186.25
2023-01-13T16:18:52.654Z,101176.47
2023-01-13T16:21:20.556Z,101194.22
2023-01-13T16:23:49.176Z,101178.84
2023-01-13T16:26:24.852Z,101183.91
2023-01-13T16:28:53.153Z,101204.78
2023-01-13T16:31:32.246Z,101194.56
2023-01-13T16:34:01.034Z,101174.56
2023-01-13T16:36:29.400Z,101199.44
2023-01-13T16:38:56.610Z,101202.13
2023-01-13T16:41:25.120Z,101200.63
2023-01-13T16:43:52.323Z,101210.59
2023-01-13T16:46:27.206Z,101204.22
2023-01-13T16:48:55.877Z,101199.72
2023-01-13T16:51:24.265Z,101215.97
2023-01-13T16:53:51.881Z,101220.03
2023-01-13T16:56:23.166Z,101218.56
2023-01-13T16:58:51.031Z,101216.00
2023-01-13T17:01:21.108Z,101220.47
2023-01-13T17:03:49.282Z,101211.31
2023-01-13T17:06:18.221Z,101220.72
2023-01-13T17:08:44.911Z,101225.88
2023-01-13T17:11:12.376Z,101219.63
2023-01-13T17:13:39.545Z,101215.56
2023-01-13T17:16:06.907Z,101205.44
2023-01-13T17:18:33.472Z,101233.41
2023-01-13T17:21:01.510Z,101233.81
2023-01-13T17:23:29.837Z,101236.47
2023-01-13T17:25:56.534Z,101234.22
2023-01-13T17:28:23.355Z,101248.41
2023-01-13T17:30:49.945Z,101234.84
2023-01-13T17:33:16.588Z,101226.41
2023-01-13T17:35:43.152Z,101223.28
2023-01-13T17:38:10.003Z,101234.81
2023-01-13T17:40:37.479Z,101226.19
2023-01-13T17:43:04.520Z,101245.16
2023-01-13T17:45:31.192Z,101243.66
2023-01-13T17:47:58.535Z,101249.38
2023-01-13T17:50:27.825Z,101258.13
2023-01-13T17:52:54.690Z,101268.63
2023-01-13T17:55:21.353Z,101240.81
2023-01-13T17:57:47.998Z,101227.34
2023-01-13T18:00:15.375Z,101247.63
2023-01-13T18:02:42.336Z,101243.34
2023-01-13T18:05:09.439Z,101243.53
2023-01-13T18:07:36.020Z,101262.19
2023-01-13T18:10:02.615Z,101223.28
2023-01-13T18:12:29.515Z,101249.31
2023-01-13T18:14:56.164Z,101243.09
2023-01-13T18:17:22.834Z,101257.16
2023-01-13T18:20:07.867Z,101244.41
2023-01-13T18:22:53.714Z,101260.38
2023-01-13T18:25:38.909Z,101259.47
2023-01-13T18:28:05.535Z,101252.03
2023-01-13T18:30:32.205Z,101266.59
2023-01-13T18:32:59.416Z,101259.47
2023-01-13T18:35:26.072Z,101273.44
2023-01-13T18:37:52.811Z,101272.03
2023-01-13T18:40:19.619Z,101281.44
2023-01-13T18:42:55.200Z,101280.78
2023-01-13T18:45:25.670Z,101286.13
2023-01-13T18:47:53.674Z,101269.38
2023-01-13T18:50:20.532Z,101248.84
2023-01-13T18:52:47.207Z,101292.97
2023-01-13T18:55:13.923Z,101284.97
2023-01-13T18:57:40.650Z,101303.78
2023-01-13T19:00:13.923Z,101294.38
2023-01-13T19:02:40.837Z,101291.06
2023-01-13T19:05:08.433Z,101307.97
2023-01-13T19:07:36.111Z,101297.31
2023-01-13T19:10:04.563Z,101285.34
2023-01-13T19:12:31.363Z,101308.63
2023-01-13T19:14:59.015Z,101321.56
2023-01-13T19:17:28.028Z,101299.41
2023-01-13T19:19:57.462Z,101323.75
2023-01-13T19:22:30.424Z,101320.78
2023-01-13T19:24:57.677Z,101313.84
2023-01-13T19:27:25.419Z,101308.53
2023-01-13T19:29:53.813Z,101317.06
2023-01-13T19:32:22.079Z,101318.09
2023-01-13T19:34:50.792Z,101306.41
2023-01-13T19:37:18.923Z,101326.41
2023-01-13T19:39:45.679Z,101326.72
2023-01-13T19:42:31.920Z,101310.47
2023-01-13T19:45:17.293Z,101316.75
2023-01-13T19:47:45.614Z,101328.22
2023-01-13T19:50:13.829Z,101332.63
2023-01-13T19:52:42.226Z,101316.88
2023-01-13T19:55:09.955Z,101299.25
2023-01-13T19:57:38.267Z,101322.16
2023-01-13T20:00:11.048Z,101318.97
2023-01-13T20:02:38.709Z,101314.00
2023-01-13T20:05:07.983Z,101303.38
2023-01-13T20:07:35.276Z,101330.63
2023-01-13T20:10:02.445Z,101328.75
2023-01-13T20:12:30.004Z,101320.00
2023-01-13T20:14:56.824Z,101320.34
2023-01-13T20:17:25.545Z,101309.88
2023-01-13T20:19:53.237Z,101322.56
2023-01-13T20:22:20.271Z,101286.75
2023-01-13T20:24:46.880Z,101311.25
2023-01-13T20:27:13.747Z,101314.06
2023-01-13T20:29:40.807Z,101316.25
2023-01-13T20:32:07.501Z,101332.53
2023-01-13T20:34:34.180Z,101326.53
2023-01-13T20:37:00.881Z,101320.03
2023-01-13T20:39:28.146Z,101300.31
2023-01-13T20:42:14.508Z,101309.06
2023-01-13T20:44:46.007Z,101329.91
2023-01-13T20:47:14.559Z,101321.94
2023-01-13T20:49:41.333Z,101309.94
2023-01-13T20:52:15.037Z,101328.97
2023-01-13T20:54:42.031Z,101308.75
2023-01-13T20:57:10.551Z,101317.16
2023-01-13T20:59:38.457Z,101299.91
2023-01-13T21:02:35.852Z,101317.50
2023-01-13T21:05:02.695Z,101319.88
2023-01-13T21:07:29.639Z,101317.47
2023-01-13T21:09:57.393Z,101296.13
2023-01-13T21:12:51.348Z,101308.25
2023-01-13T21:15:18.286Z,101298.38
2023-01-13T21:18:06.176Z,101321.09
2023-01-13T21:23:18.159Z,101333.84
2023-01-13T21:25:45.025Z,101341.03
2023-01-13T21:28:13.542Z,101332.38
2023-01-13T21:30:40.505Z,101328.88
2023-01-13T21:35:48.166Z,101347.13
2023-01-13T21:38:40.684Z,101346.13
2023-01-13T21:41:09.055Z,101330.03
2023-01-13T21:44:11.293Z,101351.94
2023-01-13T21:46:56.479Z,101340.09
2023-01-13T21:49:27.155Z,101327.72
2023-01-13T21:51:56.094Z,101347.69
2023-01-13T21:54:23.157Z,101332.44
2023-01-13T21:56:50.019Z,101336.78
2023-01-13T21:59:16.964Z,101360.97
2023-01-13T22:02:24.031Z,101360.34
2023-01-13T22:04:30.532Z,101342.53
2023-01-13T22:06:59.908Z,101364.84
2023-01-13T22:09:26.798Z,101367.41
2023-01-13T22:11:53.442Z,101358.22
2023-01-13T22:14:20.020Z,101375.50
2023-01-13T22:16:50.154Z,101369.44
2023-01-13T22:19:18.289Z,101375.06
2023-01-13T22:21:44.921Z,101367.41
2023-01-13T22:24:11.809Z,101366.31
2023-01-13T22:26:38.605Z,101362.19
2023-01-13T22:29:05.216Z,101373.59
2023-01-13T22:31:32.301Z,101385.16
2023-01-13T22:34:00.227Z,101375.06
2023-01-13T22:36:26.864Z,101378.50
2023-01-13T22:38:55.853Z,101381.78
2023-01-13T22:41:22.953Z,101374.69
2023-01-13T22:43:49.931Z,101376.91
2023-01-13T22:46:17.316Z,101369.88
2023-01-13T22:48:46.053Z,101378.47
2023-01-13T22:51:15.774Z,101378.63
2023-01-13T22:53:42.750Z,101389.31
2023-01-13T22:56:17.034Z,101372.59
2023-01-13T22:58:44.288Z,101380.88
2023-01-13T23:01:16.268Z,101391.13
2023-01-13T23:03:46.436Z,101377.53
2023-01-13T23:06:13.743Z,101388.38
2023-01-13T23:08:40.532Z,101384.81
2023-01-13T23:11:09.672Z,101376.38
2023-01-13T23:13:38.231Z,101395.88
2023-01-13T23:16:11.497Z,101392.13
2023-01-13T23:18:38.667Z,101409.19
2023-01-13T23:21:11.368Z,101413.03
2023-01-13T23:23:38.612Z,101415.06
2023-01-13T23:26:06.535Z,101409.44
2023-01-13T23:28:34.845Z,101410.22
